• Join FlightAware (Why Join?)
  • Login
  • US Flag 
07:59AM EDT


 

Airport Tracker/Info


-or-


 

Live Flight TrackerFlight Track Log ✈ N8147X ✈ 10-May-2013 ✈ KLNS - KDXR

Flight Track Log - Related Links

Times and Time Zones

All times are in EDT time to prevent confusion due to time zone crossing. See the N8147X flight status page for this flight to view local times or setup timezone preferences in your user account.

Time Position Orientation Groundspeed Altitude Reporting Facility
EDT Latitude Longitude Course Direction KTS MPH feet Rate Location/Type
06:27PM 40.2584 -76.0916 37° Northeast  Level FlightAware Approximate
06:28PM 40.2830 -76.0589 49° Northeast  Level FlightAware Approximate
06:28PM 40.2589 -76.1211 46° Northeast 103 119 5,100  Level New York Center
06:29PM 40.3050 -76.0233 57° Northeast  Level FlightAware Approximate
06:29PM 40.2769 -76.0953 48° Northeast 108 124 5,500  Level New York Center
06:30PM 40.3296 -75.9935 21° North  Level FlightAware Approximate
06:30PM 40.3011 -76.0669 42° Northeast 108 124 6,000  Level New York Center
06:31PM 40.3592 -75.9707 46° Northeast  Level FlightAware Approximate
06:31PM 40.3233 -76.0361 47° Northeast 108 124 6,500  Level New York Center
06:32PM 40.3834 -75.9373 46° Northeast  Level FlightAware Approximate
06:32PM 40.3456 -76.0050 47° Northeast 108 124 7,000  Level New York Center
06:33PM 40.4075 -75.9040 46° Northeast  Level FlightAware Approximate
06:33PM 40.3675 -75.9767 45° Northeast 108 124 7,400  Level New York Center
06:34PM 40.4317 -75.8705 46° Northeast  Level FlightAware Approximate
06:34PM 40.3897 -75.9458 47° Northeast 108 124 7,800  Level New York Center
06:35PM 40.4142 -75.9150 44° Northeast 108 124 8,300 420 Climbing New York Center
06:36PM 40.4319 -75.8861 51° Northeast 108 124 8,700 300 Climbing New York Center
06:37PM 40.4542 -75.8553 47° Northeast 108 124 9,000 120 Climbing New York Center
06:38PM 40.4828 -75.8192 44° Northeast 118 136 9,000  Level New York Center
06:39PM 40.5094 -75.7800 48° Northeast 131 151 9,100  Climbing New York Center
06:40PM 40.5336 -75.7517 42° Northeast 136 157 9,100  Level New York Center
06:41PM 40.5603 -75.7100 50° Northeast 137 158 9,100  Level New York Center
06:42PM 40.5892 -75.6711 46° Northeast 153 176 9,200 180 Climbing New York Center
06:43PM 40.6114 -75.6369 49° Northeast 135 155 9,500 180 Climbing New York Center
06:44PM 40.6358 -75.6006 48° Northeast 130 150 9,600  Climbing New York Center
06:45PM 40.6581 -75.5667 49° Northeast 130 150 9,600  Level New York Center
06:46PM 40.6806 -75.5244 55° Northeast 137 158 9,600  Level New York Center
06:47PM 40.6969 -75.4761 66° East 137 158 9,600  Level New York Center
06:48PM 40.7156 -75.4281 63° Northeast 137 158 9,600 -60 Level New York Center
06:49PM 40.7319 -75.3800 66° East 137 158 9,500 -60 Descending New York Center
06:50PM 40.7508 -75.3264 65° Northeast 137 158 9,500  Level New York Center
06:51PM 40.7672 -75.2811 64° Northeast 132 152 9,500  Level New York Center
06:52PM 40.7836 -75.2328 66° East 132 152 9,500  Level New York Center
06:53PM 40.7997 -75.1900 64° Northeast 137 158 9,500  Level New York Center
06:54PM 40.8161 -75.1417 66° East 137 158 9,600  Climbing New York Center
06:55PM 40.8347 -75.0881 65° Northeast 143 165 9,600  Level New York Center
06:56PM 40.8511 -75.0397 66° East 143 165 9,700  Climbing New York Center
06:57PM 40.8697 -74.9886 64° Northeast 150 173 9,600 -120 Descending New York Center
06:58PM 40.8836 -74.9456 67° East 145 167 9,500 -60 Descending New York Center
06:59PM 40.9022 -74.8919 65° Northeast 145 167 9,500  Level New York Center
07:00PM 40.9186 -74.8353 69° East 153 176 9,500  Level New York Center
07:01PM 40.9347 -74.7922 64° Northeast 147 169 9,500  Level New York Center
07:02PM 40.9511 -74.7383 68° East 147 169 9,500  Level New York Center
07:03PM 40.9672 -74.6953 64° Northeast 147 169 9,500  Level New York Center
07:04PM 40.9856 -74.6414 66° East 147 169 9,500  Level New York Center
07:05PM 40.9994 -74.5981 67° East 147 169 9,500  Level New York Center
07:06PM 41.0200 -74.5442 63° Northeast 147 169 9,500  Level New York Center
07:07PM 41.0319 -74.5008 70° East 147 169 9,500  Level New York Center
07:08PM 41.0500 -74.4553 62° Northeast 147 169 9,500 -60 Level New York Center
07:10PM 41.0833 -74.3500 67° East 142 163 9,400 -60 Descending New York TRACON
07:11PM 41.1000 -74.3000 66° East 142 163 9,400  Level New York TRACON
07:12PM 41.1167 -74.2500 66° East 144 166 9,500 -240 Climbing New York TRACON
07:13PM 41.1333 -74.2000 66° East 151 174 9,000 -660 Descending New York TRACON
07:14PM 41.1500 -74.1500 66° East 166 191 8,200 -840 Descending New York TRACON
07:15PM 41.1667 -74.1000 66° East 157 181 7,300 -780 Descending New York TRACON
07:16PM 41.1833 -74.0500 66° East 148 170 6,700 -600 Descending New York TRACON
07:17PM 41.2000 -74.0000 66° East 143 165 6,100 -600 Descending New York TRACON
07:18PM 41.2167 -73.9500 66° East 144 166 5,600 -600 Descending New York TRACON
07:19PM 41.2333 -73.9000 66° East 140 161 5,000 -600 Descending New York TRACON
07:20PM 41.2500 -73.8500 66° East 138 159 4,400 -600 Descending New York TRACON
07:21PM 41.2667 -73.8167 56° Northeast 138 159 3,900 -600 Descending New York TRACON
07:22PM 41.2833 -73.7667 66° East 137 158 3,300 -540 Descending New York TRACON
07:23PM 41.3000 -73.7167 66° East 137 158 2,900 -420 Descending New York TRACON
07:24PM 41.3167 -73.6667 66° East 132 152 2,500 -420 Descending New York TRACON
07:25PM 41.3167 -73.6333 90° East 130 150 2,100 -300 Descending New York TRACON
07:26PM 41.3333 -73.5833 66° East 112 129 2,000 -60 Descending New York TRACON
07:27PM 41.3500 -73.5500 56° Northeast 104 120 2,000 -60 Level New York TRACON
07:28PM 41.3500 -73.5167 90° East 103 119 1,900 -240 Descending New York TRACON
07:29PM 41.3500 -73.4833 90° East 93 107 1,600 -180 Descending New York TRACON
07:30PM 41.3667 -73.4500 56° Northeast 88 101 1,600 -60 Level New York TRACON
07:31PM 41.3833 -73.4333 37° Northeast 98 113 1,500 -120 Descending New York TRACON
07:33PM 41.3667 -73.4667 236° Southwest  Level FlightAware Approximate
07:40PM 41.3715 -73.4822 236° Southwest  Level Estimated
07:41PM 41.3715 -73.4822 236° Southwest  Level Estimated
07:42PM 41.3715 -73.4822 236° Southwest  Level Estimated